Time;durP1;ratioP1;P1;durP2;ratioP2;P2;SDS_P1;SDS_P2;PMS_P1;PMS_P2;Temp;Humidity;BMP_temperature;BMP_pressure;BME280_temperature;BME280_humidity;BME280_pressure;Samples;Min_cycle;Max_cycle;Signal;HPM_P1;HPM_P2
2021/05/27 00:00:21;;;;;;;3.78;2.53;;;15.40;65.20;;;;;;4993523;28;20041;-89
2021/05/27 00:02:47;;;;;;;4.07;2.47;;;15.30;65.20;;;;;;5010340;28;20033;-89
2021/05/27 00:05:14;;;;;;;3.88;2.50;;;15.30;65.20;;;;;;5004264;28;20022;-89
2021/05/27 00:07:40;;;;;;;3.88;2.53;;;15.30;65.90;;;;;;4988247;28;20030;-89
2021/05/27 00:10:08;;;;;;;4.75;2.65;;;15.30;65.20;;;;;;4995287;28;20045;-89
2021/05/27 00:12:34;;;;;;;5.07;3.03;;;15.30;65.30;;;;;;4989258;28;20038;-89
2021/05/27 00:15:01;;;;;;;6.28;3.05;;;15.30;65.30;;;;;;5008924;28;20458;-91
2021/05/27 00:17:27;;;;;;;4.55;3.17;;;15.30;65.30;;;;;;4989617;28;20089;-90
2021/05/27 00:19:53;;;;;;;4.88;3.00;;;15.30;65.30;;;;;;4992974;28;20478;-88
2021/05/27 00:22:19;;;;;;;4.07;2.88;;;15.30;65.30;;;;;;4996037;28;20150;-89
2021/05/27 00:24:44;;;;;;;4.30;2.70;;;15.30;65.30;;;;;;4992571;28;20026;-93
2021/05/27 00:27:10;;;;;;;4.57;3.20;;;15.30;65.30;;;;;;4991696;28;20029;-91
2021/05/27 00:29:36;;;;;;;5.80;3.08;;;15.20;65.30;;;;;;5009412;28;20581;-90
2021/05/27 00:32:02;;;;;;;4.60;3.25;;;15.20;65.30;;;;;;5023656;28;20026;-91
2021/05/27 00:34:28;;;;;;;4.13;2.70;;;15.20;65.30;;;;;;5010422;28;20025;-93
2021/05/27 00:36:56;;;;;;;4.97;3.10;;;15.30;66.00;;;;;;5008064;28;20030;-92
2021/05/27 00:39:23;;;;;;;6.15;3.25;;;15.30;65.40;;;;;;5007688;28;20052;-92
2021/05/27 00:41:49;;;;;;;5.53;3.13;;;15.20;65.40;;;;;;5006657;28;20026;-90
2021/05/27 00:44:19;;;;;;;4.93;3.08;;;15.20;65.40;;;;;;5019021;28;20064;-91
2021/05/27 00:46:46;;;;;;;4.97;2.83;;;15.20;65.50;;;;;;5018640;28;20034;-91
2021/05/27 00:49:11;;;;;;;4.72;3.17;;;15.20;65.40;;;;;;4988795;28;21043;-90
2021/05/27 00:51:39;;;;;;;5.70;3.50;;;15.20;65.50;;;;;;4988471;28;20022;-89
2021/05/27 00:54:06;;;;;;;5.35;3.10;;;15.20;65.50;;;;;;5002710;28;20033;-91
2021/05/27 00:56:32;;;;;;;4.75;2.85;;;15.20;65.50;;;;;;4976741;28;20034;-90
2021/05/27 00:58:58;;;;;;;4.13;2.70;;;15.20;65.50;;;;;;5005580;28;20111;-89
2021/05/27 01:01:24;;;;;;;4.90;3.17;;;15.20;65.60;;;;;;5004265;28;20026;-89
2021/05/27 01:03:50;;;;;;;5.07;3.22;;;15.10;65.50;;;;;;5020950;28;20037;-89
2021/05/27 01:06:16;;;;;;;4.82;3.20;;;15.10;65.50;;;;;;5012306;28;20052;-88
2021/05/27 01:08:42;;;;;;;4.60;2.97;;;15.10;65.50;;;;;;4991119;28;20042;-89
2021/05/27 01:11:08;;;;;;;5.43;2.85;;;15.10;65.60;;;;;;4986941;28;20463;-88
2021/05/27 01:13:34;;;;;;;4.75;3.10;;;15.10;65.60;;;;;;5006921;28;20116;-88
2021/05/27 01:16:01;;;;;;;3.80;2.72;;;15.10;65.60;;;;;;5005946;28;20423;-88
2021/05/27 01:18:27;;;;;;;4.88;3.00;;;15.10;65.70;;;;;;4976148;28;20068;-86
2021/05/27 01:20:58;;;;;;;4.40;2.75;;;15.10;66.30;;;;;;4991583;28;20037;-89
2021/05/27 01:23:27;;;;;;;5.47;2.85;;;15.10;65.70;;;;;;5006660;28;20034;-88
2021/05/27 01:25:56;;;;;;;4.60;2.95;;;15.10;65.70;;;;;;5009242;28;20037;-87
2021/05/27 01:28:25;;;;;;;4.47;3.08;;;15.00;65.70;;;;;;5006563;28;20053;-89
2021/05/27 01:30:51;;;;;;;5.20;2.83;;;15.00;65.70;;;;;;4992038;28;20018;-89
2021/05/27 01:33:35;;;;;;;3.95;2.70;;;15.00;65.70;;;;;;5005301;28;20036;-90
2021/05/27 01:36:03;;;;;;;3.70;2.47;;;15.00;65.70;;;;;;5009246;28;20509;-88
2021/05/27 01:38:30;;;;;;;4.78;2.90;;;15.00;65.70;;;;;;4992631;28;20132;-89
2021/05/27 01:40:59;;;;;;;3.97;2.78;;;15.00;65.80;;;;;;4991433;28;20460;-90
2021/05/27 01:43:26;;;;;;;5.78;3.13;;;15.00;65.80;;;;;;5009674;28;20183;-88
2021/05/27 01:45:54;;;;;;;3.92;2.70;;;15.00;65.80;;;;;;5022486;28;21725;-87
2021/05/27 01:48:21;;;;;;;4.82;2.80;;;14.90;65.80;;;;;;5011355;28;20049;-89
2021/05/27 01:50:48;;;;;;;4.70;2.55;;;15.00;65.80;;;;;;5009486;28;20052;-89
2021/05/27 01:53:16;;;;;;;4.88;2.80;;;15.00;65.90;;;;;;5007513;28;20034;-88
2021/05/27 01:55:46;;;;;;;3.90;2.60;;;14.90;65.80;;;;;;4989474;28;20481;-88
2021/05/27 01:58:13;;;;;;;4.57;3.03;;;14.90;65.90;;;;;;5006784;28;20021;-87
2021/05/27 02:00:40;;;;;;;4.90;2.95;;;14.90;65.90;;;;;;5006861;28;20022;-87
2021/05/27 02:03:08;;;;;;;4.65;2.70;;;14.90;65.90;;;;;;5003522;28;20030;-88
2021/05/27 02:05:35;;;;;;;4.57;2.78;;;14.80;65.90;;;;;;5019226;28;20034;-87
2021/05/27 02:08:03;;;;;;;4.05;2.90;;;14.90;66.00;;;;;;5013297;28;20160;-88
2021/05/27 02:10:49;;;;;;;4.47;2.70;;;14.90;66.00;;;;;;5020206;28;20069;-87
2021/05/27 02:13:15;;;;;;;4.82;2.83;;;14.90;66.00;;;;;;4997500;28;20057;-88
2021/05/27 02:15:43;;;;;;;4.97;2.90;;;14.80;66.00;;;;;;5012052;28;20380;-87
2021/05/27 02:18:09;;;;;;;3.85;2.58;;;14.80;66.00;;;;;;5011537;28;20038;-87
2021/05/27 02:20:37;;;;;;;4.68;2.97;;;14.80;66.10;;;;;;5012092;28;20080;-87
2021/05/27 02:23:03;;;;;;;4.30;2.80;;;14.80;66.10;;;;;;5024894;28;20033;-89
2021/05/27 02:25:44;;;;;;;4.70;2.75;;;14.80;66.10;;;;;;5011987;28;20037;-87
2021/05/27 02:28:19;;;;;;;5.57;3.28;;;14.80;66.10;;;;;;5012201;28;20108;-88
2021/05/27 02:30:46;;;;;;;4.70;2.85;;;14.70;66.10;;;;;;5006773;28;20474;-87
2021/05/27 02:33:14;;;;;;;4.30;2.75;;;14.70;66.10;;;;;;5010344;28;20033;-89
2021/05/27 02:35:41;;;;;;;4.45;2.70;;;14.70;66.20;;;;;;5012798;28;20041;-87
2021/05/27 02:38:08;;;;;;;4.05;2.63;;;14.70;66.20;;;;;;5007013;28;20053;-86
2021/05/27 02:40:38;;;;;;;3.97;2.50;;;14.70;66.30;;;;;;5011433;28;20030;-88
2021/05/27 02:43:04;;;;;;;4.90;2.63;;;14.70;66.30;;;;;;4994945;28;20145;-88
2021/05/27 02:45:32;;;;;;;5.40;2.65;;;14.70;66.30;;;;;;4994521;28;20041;-88
2021/05/27 02:47:59;;;;;;;4.53;2.97;;;14.70;66.30;;;;;;5009089;28;20041;-88
2021/05/27 02:50:26;;;;;;;5.72;2.60;;;14.60;66.40;;;;;;5010353;28;20038;-89
2021/05/27 02:52:54;;;;;;;5.35;2.60;;;14.60;66.30;;;;;;5010191;28;20127;-87
2021/05/27 02:55:20;;;;;;;3.08;2.50;;;14.60;66.40;;;;;;5011526;28;20025;-87
2021/05/27 02:57:47;;;;;;;3.92;2.70;;;14.60;66.40;;;;;;5011013;28;20383;-89
2021/05/27 03:00:14;;;;;;;5.03;2.80;;;14.60;66.40;;;;;;5009000;28;20030;-87
2021/05/27 03:02:56;;;;;;;3.13;2.60;;;14.60;66.40;;;;;;5009713;28;20041;-86
2021/05/27 03:05:22;;;;;;;4.05;2.50;;;14.60;66.40;;;;;;4991861;28;20030;-87
2021/05/27 03:07:48;;;;;;;4.15;2.72;;;14.60;66.40;;;;;;4990664;28;20479;-88
2021/05/27 03:10:17;;;;;;;4.78;3.03;;;14.60;66.50;;;;;;5007357;28;20030;-89
2021/05/27 03:12:44;;;;;;;4.30;2.78;;;14.50;66.50;;;;;;5010468;28;20068;-87
2021/05/27 03:15:10;;;;;;;4.18;2.65;;;14.50;66.50;;;;;;4995548;28;20026;-89
2021/05/27 03:17:37;;;;;;;4.95;2.85;;;14.50;66.50;;;;;;5020139;28;20079;-88
2021/05/27 03:20:05;;;;;;;4.85;2.90;;;14.50;66.50;;;;;;4992680;28;20030;-88
2021/05/27 03:22:32;;;;;;;4.57;2.90;;;14.50;66.60;;;;;;4986309;28;20040;-87
2021/05/27 03:25:00;;;;;;;5.00;2.97;;;14.50;66.60;;;;;;4999298;28;20109;-87
2021/05/27 03:27:26;;;;;;;4.60;2.97;;;14.50;66.60;;;;;;4998929;28;20026;-86
2021/05/27 03:29:52;;;;;;;4.80;3.45;;;14.50;66.70;;;;;;4998955;28;20038;-86
2021/05/27 03:32:21;;;;;;;3.50;2.65;;;14.50;66.70;;;;;;5008726;28;20038;-88
2021/05/27 03:34:47;;;;;;;3.70;2.30;;;14.40;66.70;;;;;;5006681;28;20437;-88
2021/05/27 03:37:13;;;;;;;4.70;2.75;;;14.40;66.70;;;;;;4993981;28;20033;-88
2021/05/27 03:39:39;;;;;;;3.45;2.40;;;14.40;66.70;;;;;;5010953;28;21646;-87
2021/05/27 03:42:06;;;;;;;3.92;2.90;;;14.40;66.80;;;;;;5008380;28;20030;-89
2021/05/27 03:44:36;;;;;;;4.22;2.65;;;14.40;66.80;;;;;;5007012;28;20025;-88
2021/05/27 03:47:02;;;;;;;4.30;2.58;;;14.40;66.80;;;;;;5010888;28;20041;-88
2021/05/27 03:49:28;;;;;;;3.20;2.75;;;14.40;66.80;;;;;;4994509;28;20050;-88
2021/05/27 03:51:57;;;;;;;4.65;2.65;;;14.40;66.90;;;;;;4988689;28;20026;-87
2021/05/27 03:54:23;;;;;;;4.22;2.55;;;14.30;66.80;;;;;;4979274;28;20026;-87
2021/05/27 03:56:49;;;;;;;4.50;2.80;;;14.30;66.90;;;;;;4994616;28;20517;-89
2021/05/27 04:02:06;;;;;;;3.65;2.72;;;14.30;67.00;;;;;;5001446;28;20046;-86
2021/05/27 04:07:33;;;;;;;3.17;2.38;;;14.30;66.90;;;;;;4993991;28;20037;-84
2021/05/27 04:09:58;;;;;;;3.33;2.47;;;14.30;66.90;;;;;;5009439;28;20049;-86
2021/05/27 04:15:22;;;;;;;4.68;2.85;;;14.20;67.00;;;;;;5011942;28;20410;-85
2021/05/27 04:17:52;;;;;;;3.13;2.47;;;14.20;67.00;;;;;;5010374;28;20032;-85
2021/05/27 04:20:18;;;;;;;3.10;2.17;;;14.20;67.00;;;;;;5007596;28;20037;-86
2021/05/27 04:22:44;;;;;;;3.63;2.53;;;14.20;67.10;;;;;;4990829;28;20038;-84
2021/05/27 04:25:13;;;;;;;2.78;2.15;;;14.20;67.10;;;;;;4991505;28;20025;-85
2021/05/27 04:27:40;;;;;;;4.32;2.70;;;14.20;67.20;;;;;;4991271;28;20320;-83
2021/05/27 04:30:14;;;;;;;3.63;2.47;;;14.20;67.20;;;;;;5011047;28;20030;-86
2021/05/27 04:32:55;;;;;;;3.72;2.40;;;14.20;67.20;;;;;;5009233;28;20034;-84
2021/05/27 04:35:24;;;;;;;3.85;2.53;;;14.20;67.20;;;;;;5002309;28;20040;-87
2021/05/27 04:37:51;;;;;;;3.72;2.33;;;14.20;67.20;;;;;;4988211;28;20042;-87
2021/05/27 04:40:17;;;;;;;4.18;2.30;;;14.20;67.30;;;;;;5007114;28;20034;-84
2021/05/27 04:42:43;;;;;;;4.25;2.50;;;14.10;67.20;;;;;;5012809;28;20241;-83
2021/05/27 04:45:09;;;;;;;3.17;2.13;;;14.10;67.20;;;;;;5013105;28;20593;-85
2021/05/27 04:47:35;;;;;;;4.28;2.60;;;14.10;67.30;;;;;;5012264;28;20479;-83
2021/05/27 04:50:01;;;;;;;5.13;2.45;;;14.10;67.30;;;;;;4997062;28;20053;-85
2021/05/27 04:52:27;;;;;;;4.07;2.45;;;14.10;67.30;;;;;;5013249;28;20382;-87
2021/05/27 04:54:52;;;;;;;3.97;2.47;;;14.10;67.30;;;;;;4996532;28;20026;-86
2021/05/27 04:57:18;;;;;;;3.67;2.40;;;14.10;67.30;;;;;;4994707;28;20023;-82
2021/05/27 04:59:46;;;;;;;4.63;2.70;;;14.10;67.30;;;;;;5013060;28;20041;-90
2021/05/27 05:02:12;;;;;;;3.63;2.42;;;14.10;67.40;;;;;;5012610;28;20037;-89
2021/05/27 05:04:38;;;;;;;4.35;2.40;;;14.10;67.40;;;;;;4987296;28;20121;-87
2021/05/27 05:07:03;;;;;;;4.57;2.40;;;14.10;67.40;;;;;;4993324;28;20485;-83
2021/05/27 05:09:45;;;;;;;4.38;2.45;;;14.10;67.40;;;;;;4989493;28;20046;-91
2021/05/27 05:12:11;;;;;;;4.00;2.47;;;14.10;67.50;;;;;;5025791;28;20062;-88
2021/05/27 05:14:37;;;;;;;3.50;2.20;;;14.10;67.50;;;;;;5009965;28;20096;-88
2021/05/27 05:17:03;;;;;;;3.42;2.58;;;14.00;67.40;;;;;;5008673;28;20132;-88
2021/05/27 05:19:29;;;;;;;3.53;2.33;;;14.10;67.50;;;;;;5007112;28;20037;-85
2021/05/27 05:21:57;;;;;;;3.33;2.42;;;14.00;67.50;;;;;;5009154;28;20022;-83
2021/05/27 05:24:23;;;;;;;3.97;2.33;;;14.00;67.50;;;;;;4994539;28;20113;-88
2021/05/27 05:26:49;;;;;;;3.50;2.53;;;14.00;67.50;;;;;;4989610;28;20526;-85
2021/05/27 05:29:15;;;;;;;5.32;2.30;;;14.00;67.60;;;;;;5013025;28;20129;-88
2021/05/27 05:31:40;;;;;;;3.83;2.65;;;14.00;67.60;;;;;;5024474;28;20032;-85
2021/05/27 05:34:06;;;;;;;3.50;2.30;;;14.00;67.60;;;;;;4992366;28;20054;-85
2021/05/27 05:36:32;;;;;;;4.07;2.17;;;14.00;67.60;;;;;;5010093;28;20072;-84
2021/05/27 05:38:58;;;;;;;4.55;2.67;;;14.00;67.60;;;;;;4996665;28;20125;-85
2021/05/27 05:41:24;;;;;;;4.07;2.30;;;14.00;67.60;;;;;;4994963;28;20422;-86
2021/05/27 05:43:49;;;;;;;4.22;2.60;;;14.00;67.60;;;;;;5012972;28;20490;-85
2021/05/27 05:46:15;;;;;;;3.75;2.30;;;14.00;67.60;;;;;;4997088;28;20497;-86
2021/05/27 05:48:41;;;;;;;3.78;2.50;;;14.00;67.60;;;;;;5012887;28;20072;-86
2021/05/27 05:51:07;;;;;;;3.70;2.35;;;14.00;67.70;;;;;;5012430;28;20045;-86
2021/05/27 05:53:34;;;;;;;6.75;2.60;;;14.00;67.70;;;;;;4999167;28;20093;-87
2021/05/27 05:56:00;;;;;;;5.35;2.70;;;14.00;67.70;;;;;;5013545;28;20425;-87
2021/05/27 05:58:26;;;;;;;4.30;2.15;;;14.00;67.70;;;;;;5013001;28;20041;-86
2021/05/27 06:00:53;;;;;;;4.22;2.50;;;14.00;67.70;;;;;;4996325;28;20034;-87
2021/05/27 06:03:20;;;;;;;4.20;2.13;;;14.00;67.80;;;;;;5013239;28;20024;-87
2021/05/27 06:05:59;;;;;;;3.75;2.63;;;14.00;67.80;;;;;;5014308;28;20042;-86
2021/05/27 06:08:33;;;;;;;3.63;2.30;;;14.00;67.80;;;;;;5010704;28;20034;-88
2021/05/27 06:10:59;;;;;;;3.60;2.42;;;13.90;67.70;;;;;;5001481;28;20033;-85
2021/05/27 06:13:25;;;;;;;3.70;2.53;;;14.00;67.80;;;;;;5013204;28;20022;-87
2021/05/27 06:15:51;;;;;;;3.00;2.28;;;13.90;67.80;;;;;;4979641;28;20046;-88
2021/05/27 06:18:17;;;;;;;2.60;2.17;;;13.90;67.80;;;;;;5028467;28;20034;-88
2021/05/27 06:20:58;;;;;;;3.78;2.30;;;14.00;67.90;;;;;;5011352;28;20117;-87
2021/05/27 06:23:29;;;;;;;3.67;2.42;;;13.90;67.80;;;;;;5008589;28;20043;-86
2021/05/27 06:25:54;;;;;;;3.42;2.28;;;14.00;67.80;;;;;;5003306;28;20030;-86
2021/05/27 06:28:20;;;;;;;3.00;2.17;;;13.90;67.80;;;;;;5013147;28;20461;-86
2021/05/27 06:30:46;;;;;;;4.00;2.53;;;13.90;67.90;;;;;;5009174;28;20041;-88
2021/05/27 06:33:12;;;;;;;4.03;2.17;;;13.90;67.90;;;;;;4978939;28;20026;-87
2021/05/27 06:35:39;;;;;;;3.35;2.30;;;13.90;67.90;;;;;;5001189;28;20030;-89
2021/05/27 06:38:04;;;;;;;4.32;2.45;;;13.90;67.90;;;;;;5013943;28;20026;-89
2021/05/27 06:40:31;;;;;;;3.95;2.22;;;13.90;67.90;;;;;;4986132;28;20095;-88
2021/05/27 06:42:57;;;;;;;3.88;2.40;;;13.90;67.90;;;;;;4996075;28;20033;-87
2021/05/27 06:45:23;;;;;;;2.92;2.15;;;13.90;67.90;;;;;;5009563;28;20030;-86
2021/05/27 06:47:50;;;;;;;4.82;2.60;;;13.90;67.90;;;;;;5021710;28;20057;-88
2021/05/27 06:50:32;;;;;;;4.15;2.55;;;13.90;67.90;;;;;;5012081;28;20052;-87
2021/05/27 06:53:15;;;;;;;3.28;2.15;;;13.90;68.00;;;;;;5012035;28;20116;-87
2021/05/27 06:55:42;;;;;;;3.88;2.45;;;13.90;68.00;;;;;;5014554;28;20029;-88
2021/05/27 06:58:09;;;;;;;3.50;2.40;;;13.90;68.00;;;;;;5015307;28;20462;-90
2021/05/27 07:00:36;;;;;;;3.80;2.47;;;13.90;68.00;;;;;;5016329;28;20065;-88
2021/05/27 07:03:07;;;;;;;3.60;2.08;;;13.90;68.00;;;;;;5016378;28;20137;-87
2021/05/27 07:05:34;;;;;;;4.20;2.40;;;13.90;68.00;;;;;;5015563;28;20077;-87
2021/05/27 07:08:01;;;;;;;4.28;2.80;;;13.90;68.00;;;;;;5015929;28;20533;-88
2021/05/27 07:10:29;;;;;;;2.20;1.95;;;13.90;68.00;;;;;;4999488;28;20128;-88
2021/05/27 07:13:02;;;;;;;3.75;2.35;;;13.90;68.00;;;;;;5016115;28;20052;-87
2021/05/27 07:15:29;;;;;;;3.35;2.05;;;13.90;68.00;;;;;;5012755;28;20057;-87
2021/05/27 07:17:56;;;;;;;3.03;2.10;;;13.90;68.00;;;;;;5015383;28;20509;-86
2021/05/27 07:20:24;;;;;;;4.60;2.60;;;13.90;68.10;;;;;;5014878;28;20485;-85
2021/05/27 07:22:51;;;;;;;3.65;2.25;;;13.90;68.10;;;;;;4995576;28;20023;-87
2021/05/27 07:25:20;;;;;;;3.22;1.90;;;13.90;68.10;;;;;;5004043;28;20034;-88
2021/05/27 07:27:48;;;;;;;5.35;2.70;;;13.90;68.10;;;;;;5012600;28;20037;-87
2021/05/27 07:30:15;;;;;;;2.80;2.00;;;13.90;68.20;;;;;;4999283;28;20030;-87
2021/05/27 07:32:41;;;;;;;3.20;2.30;;;13.90;68.20;;;;;;5015839;28;20022;-86
2021/05/27 07:35:07;;;;;;;3.92;2.25;;;13.90;68.20;;;;;;5018349;28;20179;-88
2021/05/27 07:37:33;;;;;;;2.50;2.05;;;13.90;68.20;;;;;;4995670;28;20407;-87
2021/05/27 07:39:59;;;;;;;3.80;2.10;;;13.90;68.20;;;;;;5013649;28;20030;-87
2021/05/27 07:42:25;;;;;;;3.42;1.90;;;13.90;68.20;;;;;;5014674;28;20076;-86
2021/05/27 07:44:51;;;;;;;3.13;2.13;;;13.90;68.20;;;;;;4998035;28;20454;-88
2021/05/27 07:47:17;;;;;;;4.35;2.45;;;14.00;68.30;;;;;;5011931;28;20056;-88
2021/05/27 07:49:43;;;;;;;3.50;2.13;;;13.90;68.20;;;;;;5009830;28;20085;-87
2021/05/27 07:52:09;;;;;;;3.28;2.28;;;13.90;68.20;;;;;;4998728;28;20121;-89
2021/05/27 07:54:35;;;;;;;3.65;2.40;;;13.90;68.20;;;;;;5015398;28;20018;-88
2021/05/27 07:57:01;;;;;;;3.10;2.10;;;13.90;68.20;;;;;;5000933;28;20022;-88
2021/05/27 07:59:27;;;;;;;3.75;2.20;;;13.90;68.30;;;;;;5031403;28;20030;-88
2021/05/27 08:01:53;;;;;;;2.63;2.13;;;13.90;68.30;;;;;;5027936;28;20025;-88
2021/05/27 08:04:19;;;;;;;2.97;2.00;;;14.00;68.30;;;;;;4988040;28;20026;-88
2021/05/27 08:06:44;;;;;;;3.78;2.08;;;13.90;68.30;;;;;;4998520;28;20041;-88
2021/05/27 08:09:11;;;;;;;4.28;2.15;;;14.00;68.30;;;;;;5006531;28;20447;-88
2021/05/27 08:11:44;;;;;;;3.33;2.28;;;14.00;68.30;;;;;;5008273;28;20048;-89
2021/05/27 08:14:11;;;;;;;2.60;1.90;;;14.00;68.50;;;;;;4997842;28;20546;-88
2021/05/27 08:16:38;;;;;;;3.95;2.15;;;14.00;68.40;;;;;;5014100;28;20037;-90
2021/05/27 08:19:05;;;;;;;3.65;2.03;;;14.00;68.40;;;;;;5015924;28;20038;-87
2021/05/27 08:21:32;;;;;;;5.18;2.25;;;14.00;68.40;;;;;;4996686;28;20022;-90
2021/05/27 08:23:59;;;;;;;3.55;2.22;;;14.00;69.10;;;;;;5008459;28;20034;-88
2021/05/27 08:26:25;;;;;;;2.42;1.95;;;14.00;68.50;;;;;;4984577;28;20086;-86
2021/05/27 08:28:52;;;;;;;3.63;2.08;;;14.00;68.50;;;;;;5011214;28;20031;-85
2021/05/27 08:31:20;;;;;;;3.33;2.13;;;14.00;68.50;;;;;;5011842;28;20030;-86
2021/05/27 08:33:48;;;;;;;2.70;1.98;;;14.10;68.60;;;;;;5020767;28;20030;-85
2021/05/27 08:36:16;;;;;;;3.10;2.10;;;14.00;68.50;;;;;;5000259;28;20418;-87
2021/05/27 08:38:43;;;;;;;4.03;2.50;;;14.00;68.50;;;;;;4994821;28;20034;-88
2021/05/27 08:41:10;;;;;;;3.75;2.00;;;14.00;68.50;;;;;;5009572;28;20104;-86
2021/05/27 08:43:37;;;;;;;4.43;2.22;;;14.00;68.60;;;;;;4994326;28;20030;-85
2021/05/27 08:46:05;;;;;;;3.92;2.15;;;14.10;68.60;;;;;;5016096;28;20084;-89
2021/05/27 08:48:31;;;;;;;2.72;2.05;;;14.10;68.60;;;;;;4997079;28;20042;-86
2021/05/27 08:50:59;;;;;;;3.47;1.85;;;14.00;68.60;;;;;;5012702;28;20379;-88
2021/05/27 08:53:26;;;;;;;3.65;2.10;;;14.00;68.60;;;;;;4994187;28;20034;-85
2021/05/27 08:55:52;;;;;;;3.95;2.33;;;14.10;68.70;;;;;;4987316;28;20022;-85
2021/05/27 08:58:19;;;;;;;3.33;2.00;;;14.10;68.70;;;;;;5013324;28;20072;-86
2021/05/27 09:00:45;;;;;;;3.50;2.00;;;14.10;68.70;;;;;;5013775;28;20080;-86
2021/05/27 09:03:13;;;;;;;2.95;2.00;;;14.10;68.70;;;;;;5013476;28;20033;-85
2021/05/27 09:05:40;;;;;;;2.83;1.80;;;14.10;68.60;;;;;;4983434;28;20030;-86
2021/05/27 09:08:24;;;;;;;3.00;2.00;;;14.10;68.60;;;;;;5013207;28;20037;-87
2021/05/27 09:10:51;;;;;;;3.20;2.10;;;14.10;68.70;;;;;;5000360;28;20030;-86
2021/05/27 09:13:21;;;;;;;2.92;2.00;;;14.20;68.70;;;;;;5013765;28;20033;-86
2021/05/27 09:15:49;;;;;;;2.80;2.00;;;14.10;68.70;;;;;;5013258;28;20030;-87
2021/05/27 09:18:31;;;;;;;3.30;2.08;;;14.10;68.70;;;;;;5012546;28;20140;-87
2021/05/27 09:20:57;;;;;;;2.92;2.30;;;14.10;68.80;;;;;;4996419;28;20103;-85
2021/05/27 09:23:23;;;;;;;4.20;2.10;;;14.20;68.70;;;;;;4996537;28;20026;-85
2021/05/27 09:25:53;;;;;;;3.00;1.88;;;14.20;68.70;;;;;;5010191;28;20030;-86
2021/05/27 09:28:23;;;;;;;3.35;2.10;;;14.20;68.70;;;;;;5012952;28;20101;-87
2021/05/27 09:30:57;;;;;;;3.40;2.05;;;14.20;68.70;;;;;;5009839;28;20026;-85
2021/05/27 09:33:59;;;;;;;3.88;2.20;;;14.20;68.80;;;;;;4999748;28;20073;-85
2021/05/27 09:36:25;;;;;;;2.67;1.98;;;14.20;68.80;;;;;;5029474;28;20670;-85
2021/05/27 09:38:58;;;;;;;3.33;2.28;;;14.30;68.60;;;;;;4996350;28;20018;-89
2021/05/27 09:41:27;;;;;;;3.30;1.92;;;14.20;68.70;;;;;;4983111;28;20022;-88
2021/05/27 09:44:15;;;;;;;4.03;2.13;;;14.30;68.70;;;;;;5013270;28;20018;-86
2021/05/27 09:46:52;;;;;;;3.30;2.08;;;14.20;68.80;;;;;;4996769;28;20029;-90
2021/05/27 09:49:25;;;;;;;3.60;2.25;;;14.20;68.70;;;;;;5012842;28;20109;-89
2021/05/27 09:51:53;;;;;;;3.15;1.92;;;14.30;68.70;;;;;;5008515;28;20037;-88
2021/05/27 09:54:19;;;;;;;3.80;2.30;;;14.30;68.70;;;;;;5005534;28;20033;-89
2021/05/27 09:56:45;;;;;;;3.13;1.77;;;14.30;68.70;;;;;;5012265;28;20026;-88
2021/05/27 09:59:14;;;;;;;3.97;2.00;;;14.30;68.70;;;;;;4996432;28;20036;-89
2021/05/27 10:02:00;;;;;;;4.00;2.13;;;14.30;68.70;;;;;;4996549;28;20482;-89
2021/05/27 10:04:26;;;;;;;4.20;2.42;;;14.30;68.70;;;;;;5012663;28;20026;-89
2021/05/27 10:06:52;;;;;;;2.47;1.95;;;14.30;68.70;;;;;;5015110;28;20029;-89
2021/05/27 10:09:19;;;;;;;4.18;2.50;;;14.30;68.70;;;;;;5007983;28;20057;-89
2021/05/27 10:11:46;;;;;;;3.88;2.20;;;14.30;68.70;;;;;;5006587;28;20100;-88
2021/05/27 10:14:12;;;;;;;4.28;2.20;;;14.40;68.70;;;;;;5012253;28;20029;-88
2021/05/27 10:16:41;;;;;;;3.90;2.20;;;14.40;68.80;;;;;;4998393;28;20058;-88
2021/05/27 10:19:07;;;;;;;4.18;2.40;;;14.40;68.70;;;;;;5007919;28;20030;-92
2021/05/27 10:21:33;;;;;;;3.80;2.55;;;14.40;68.70;;;;;;5012545;28;20033;-89
2021/05/27 10:24:03;;;;;;;3.15;2.20;;;14.40;68.70;;;;;;4996077;28;20026;-88
2021/05/27 10:26:29;;;;;;;4.80;2.60;;;14.40;68.70;;;;;;5013241;28;20041;-89
2021/05/27 10:28:55;;;;;;;5.32;2.80;;;14.40;68.70;;;;;;4996001;28;20022;-89
2021/05/27 10:31:24;;;;;;;3.10;2.15;;;14.40;68.70;;;;;;5012271;28;20467;-88
2021/05/27 10:33:52;;;;;;;4.82;2.33;;;14.40;68.70;;;;;;5012802;28;20018;-88
2021/05/27 10:36:18;;;;;;;3.58;2.22;;;14.40;68.70;;;;;;5012833;28;20037;-89
2021/05/27 10:38:50;;;;;;;3.92;2.25;;;14.50;68.70;;;;;;4999870;28;20056;-90
2021/05/27 10:41:42;;;;;;;3.63;2.30;;;14.50;68.80;;;;;;5032581;28;20033;-89
2021/05/27 10:44:12;;;;;;;4.70;2.50;;;14.50;68.90;;;;;;5015629;28;20041;-90
2021/05/27 10:46:44;;;;;;;3.42;2.60;;;14.50;68.70;;;;;;5015646;28;20018;-87
2021/05/27 10:49:11;;;;;;;4.65;2.58;;;14.50;68.80;;;;;;5012265;28;20081;-85
2021/05/27 10:51:44;;;;;;;3.35;2.33;;;14.50;68.70;;;;;;5010024;28;20104;-90
2021/05/27 10:54:15;;;;;;;3.90;2.65;;;14.50;68.70;;;;;;4991980;28;20030;-87
2021/05/27 10:56:44;;;;;;;4.35;2.65;;;14.50;68.70;;;;;;5015553;28;20049;-85
2021/05/27 10:59:15;;;;;;;4.68;2.65;;;14.60;68.70;;;;;;5016038;28;20053;-86
2021/05/27 11:01:43;;;;;;;3.15;2.30;;;14.60;68.70;;;;;;4988475;28;20026;-86
2021/05/27 11:04:25;;;;;;;5.07;2.67;;;14.60;68.80;;;;;;5015574;28;20112;-87
2021/05/27 11:07:09;;;;;;;4.90;2.70;;;14.60;68.80;;;;;;5015646;28;20066;-87
2021/05/27 11:09:36;;;;;;;4.10;2.73;;;14.60;68.80;;;;;;5004904;28;20482;-85
2021/05/27 11:12:09;;;;;;;4.80;2.70;;;14.60;68.60;;;;;;4995753;28;20529;-87
2021/05/27 11:14:46;;;;;;;4.13;2.53;;;14.70;68.70;;;;;;4998948;28;20045;-87
2021/05/27 11:17:16;;;;;;;3.75;2.60;;;14.70;68.80;;;;;;5015667;28;20026;-85
2021/05/27 11:25:10;;;;;;;4.22;2.97;;;14.70;68.80;;;;;;5012156;28;20034;-86
2021/05/27 11:27:50;;;;;;;4.53;2.78;;;14.70;68.70;;;;;;5010166;28;20113;-87
2021/05/27 11:30:38;;;;;;;3.45;2.30;;;14.70;68.70;;;;;;4998750;28;20125;-91
2021/05/27 11:33:19;;;;;;;4.60;2.67;;;14.70;68.80;;;;;;5015489;28;20029;-85
2021/05/27 11:35:47;;;;;;;4.00;2.42;;;14.70;68.60;;;;;;4994635;28;20133;-88
2021/05/27 11:38:21;;;;;;;4.80;2.70;;;14.70;68.70;;;;;;4996829;28;20534;-89
2021/05/27 11:40:50;;;;;;;5.45;2.42;;;14.70;68.80;;;;;;4998702;28;20036;-87
2021/05/27 11:43:17;;;;;;;3.78;2.40;;;14.80;68.70;;;;;;5015725;28;20029;-87
2021/05/27 11:45:50;;;;;;;3.78;2.47;;;14.80;68.70;;;;;;5014709;28;20068;-87
2021/05/27 11:51:03;;;;;;;3.03;2.58;;;14.80;68.80;;;;;;5016141;28;20100;-88
2021/05/27 11:53:39;;;;;;;4.32;2.60;;;14.80;68.70;;;;;;5010832;28;20066;-87
2021/05/27 11:56:05;;;;;;;3.42;2.30;;;14.80;68.80;;;;;;5006179;28;20049;-86
2021/05/27 11:58:38;;;;;;;4.25;2.50;;;14.80;68.70;;;;;;5014639;28;20069;-87
2021/05/27 12:01:20;;;;;;;4.50;2.20;;;14.80;68.80;;;;;;4997641;28;20209;-88
2021/05/27 12:04:10;;;;;;;3.70;2.30;;;14.80;68.80;;;;;;5010165;28;20034;-89
2021/05/27 12:06:55;;;;;;;4.00;2.75;;;14.90;68.90;;;;;;4992081;28;20022;-88
2021/05/27 12:09:29;;;;;;;4.53;2.08;;;14.90;69.50;;;;;;5030768;28;20115;-88
2021/05/27 12:11:57;;;;;;;3.20;2.30;;;14.90;68.70;;;;;;5014168;28;20470;-87
2021/05/27 12:14:23;;;;;;;3.75;2.30;;;14.90;68.70;;;;;;5014042;28;20060;-89
2021/05/27 12:16:50;;;;;;;3.35;2.45;;;15.00;68.70;;;;;;5010604;28;20107;-85
2021/05/27 12:19:16;;;;;;;4.78;2.30;;;15.00;68.80;;;;;;5010269;28;20028;-87
2021/05/27 12:21:56;;;;;;;3.13;2.35;;;15.00;68.80;;;;;;5020546;28;20037;-88
2021/05/27 12:24:29;;;;;;;2.95;2.10;;;15.00;68.80;;;;;;5016407;28;20034;-84
2021/05/27 12:26:58;;;;;;;3.05;2.17;;;15.10;68.70;;;;;;5014081;28;20030;-86
2021/05/27 12:29:27;;;;;;;2.38;1.90;;;15.10;68.70;;;;;;4999737;28;20137;-86
2021/05/27 12:31:53;;;;;;;3.38;2.17;;;15.10;68.70;;;;;;5013151;28;20090;-88
2021/05/27 12:34:20;;;;;;;3.67;2.38;;;15.10;68.60;;;;;;4993966;28;20026;-87
2021/05/27 12:36:58;;;;;;;3.63;2.30;;;15.20;68.70;;;;;;5013409;28;20034;-86
2021/05/27 12:39:35;;;;;;;4.40;2.55;;;15.20;68.70;;;;;;4997277;28;20117;-87
2021/05/27 12:42:09;;;;;;;3.85;2.42;;;15.30;68.70;;;;;;5013922;28;20052;-86
2021/05/27 12:44:48;;;;;;;3.23;2.17;;;15.30;68.60;;;;;;4996459;28;20034;-87
2021/05/27 12:47:22;;;;;;;3.97;2.35;;;15.30;68.60;;;;;;5003988;28;20072;-86
2021/05/27 12:49:52;;;;;;;2.90;2.20;;;15.30;68.50;;;;;;5013421;28;20995;-89
2021/05/27 12:52:43;;;;;;;4.53;2.25;;;15.40;68.50;;;;;;4998772;28;20053;-88
2021/05/27 12:55:10;;;;;;;2.88;2.15;;;15.40;68.60;;;;;;5012958;28;20112;-88
2021/05/27 12:57:53;;;;;;;3.25;2.10;;;15.40;68.40;;;;;;5015379;28;20120;-86
2021/05/27 13:00:28;;;;;;;3.75;2.08;;;15.40;68.50;;;;;;4999402;28;20478;-88
2021/05/27 13:03:01;;;;;;;;;;;15.40;68.40;;;;;;5010517;28;20471;-87
2021/05/27 13:05:26;;;;;;;4.20;2.10;;;15.50;68.30;;;;;;5010433;28;20612;-87
2021/05/27 13:07:57;;;;;;;3.83;2.05;;;15.50;68.20;;;;;;4994904;28;20041;-87
2021/05/27 13:10:28;;;;;;;4.53;2.70;;;15.50;68.30;;;;;;4996518;28;20114;-84
2021/05/27 13:12:54;;;;;;;3.15;2.03;;;15.50;68.40;;;;;;4996771;28;20034;-87